Lincoln Boyhood National Mem, Indiana
Current Conditions -  °F | °C
As of 6:15 AM on Friday 31 Oct 2014 (Local Time) from KHNB Reporting Station
Broken Clouds Broken Clouds  
Wind Chill: 46°   Ceiling: 5000
Heat Index: 46°   Visibility: 10mi
Dew Point: 41°   Wind: 3mph
Humidity: 81%   Direction: 360°N
Pressure: 30.03"   Gusts: NA
Location:  38.1283°N, 86.9862°W
Report Text: KHNB 311115Z AUTO 36003KT 10SM FEW030 SCT043 BKN050 08/05 A3003 RMK AO1
Loading
Personal Weather Stations






























Interactive Weather Map
Tropical Storm Tracking
New forecast layout! Learn more

10-Day Weather Forecast

Advertisements
Track Severe Weather on mobile